createdAt,value
2023-01-11T00:00:45.167Z,4.47
2023-01-11T00:03:17.978Z,3.65
2023-01-11T00:05:45.878Z,5.05
2023-01-11T00:08:15.045Z,3.05
2023-01-11T00:10:42.884Z,3.25
2023-01-11T00:13:10.673Z,3.05
2023-01-11T00:15:40.654Z,3.03
2023-01-11T00:18:08.647Z,3.22
2023-01-11T00:20:39.781Z,3.03
2023-01-11T00:23:10.522Z,4.32
2023-01-11T00:25:38.627Z,1.10
2023-01-11T00:28:09.703Z,2.58
2023-01-11T00:30:37.412Z,1.67
2023-01-11T00:33:05.130Z,2.55
2023-01-11T00:35:33.220Z,2.22
2023-01-11T00:38:07.575Z,2.55
2023-01-11T00:40:37.043Z,2.20
2023-01-11T00:43:22.371Z,1.10
2023-01-11T00:46:16.288Z,2.17
2023-01-11T00:48:44.024Z,1.83
2023-01-11T00:51:11.770Z,3.15
2023-01-11T00:53:40.960Z,2.25
2023-01-11T00:56:10.787Z,2.08
2023-01-11T00:58:43.826Z,1.08
2023-01-11T01:01:11.608Z,2.88
2023-01-11T01:03:39.388Z,2.33
2023-01-11T01:06:07.169Z,3.65
2023-01-11T01:08:36.204Z,1.17
2023-01-11T01:11:06.288Z,1.73
2023-01-11T01:13:59.030Z,1.95
2023-01-11T01:16:26.862Z,1.85
2023-01-11T01:18:57.251Z,2.63
2023-01-11T01:21:25.516Z,5.03
2023-01-11T01:23:53.511Z,1.95
2023-01-11T01:26:24.479Z,4.05
2023-01-11T01:28:59.454Z,1.17
2023-01-11T01:31:27.221Z,3.65
2023-01-11T01:33:57.225Z,1.23
2023-01-11T01:36:25.065Z,1.23
2023-01-11T01:38:52.900Z,1.45
2023-01-11T01:41:22.019Z,2.15
2023-01-11T01:43:53.031Z,2.47
2023-01-11T01:46:22.821Z,1.33
2023-01-11T01:48:54.569Z,4.32
2023-01-11T01:51:27.738Z,1.50
2023-01-11T01:53:59.632Z,1.70
2023-01-11T01:56:34.524Z,3.45
2023-01-11T01:59:08.830Z,2.30
2023-01-11T02:01:48.688Z,1.65
2023-01-11T02:04:21.547Z,3.22
2023-01-11T02:06:50.016Z,1.23
2023-01-11T02:09:26.563Z,1.67
2023-01-11T02:11:59.604Z,1.60
2023-01-11T02:14:31.172Z,1.00
2023-01-11T02:17:00.975Z,2.50
2023-01-11T02:19:41.997Z,2.30
2023-01-11T02:22:31.966Z,1.25
2023-01-11T02:25:41.655Z,1.50
2023-01-11T02:28:13.184Z,1.83
2023-01-11T02:30:50.130Z,1.05
2023-01-11T02:33:27.059Z,0.90
2023-01-11T02:36:05.651Z,1.25
2023-01-11T02:38:42.320Z,1.75
2023-01-11T02:41:20.318Z,0.80
2023-01-11T02:44:18.344Z,1.20
2023-01-11T02:49:26.630Z,3.75
2023-01-11T02:52:05.314Z,0.98
2023-01-11T02:54:35.102Z,0.90
2023-01-11T02:57:09.461Z,1.27
2023-01-11T02:59:45.156Z,0.98
2023-01-11T03:02:14.080Z,3.45
2023-01-11T03:04:41.829Z,0.88
2023-01-11T03:07:23.607Z,0.77
2023-01-11T03:10:04.384Z,0.90
2023-01-11T03:12:55.655Z,1.75
2023-01-11T03:15:44.683Z,0.60
2023-01-11T03:18:26.934Z,2.67
2023-01-11T03:21:05.697Z,2.38
2023-01-11T03:23:39.338Z,3.33
2023-01-11T03:26:17.118Z,2.03
2023-01-11T03:28:55.419Z,1.10
2023-01-11T03:31:32.550Z,2.30
2023-01-11T03:34:06.522Z,2.67
2023-01-11T03:36:39.885Z,0.75
2023-01-11T03:39:16.715Z,0.80
2023-01-11T03:41:45.436Z,0.73
2023-01-11T03:44:17.487Z,0.98
2023-01-11T03:46:49.651Z,1.75
2023-01-11T03:49:23.170Z,0.55
2023-01-11T03:51:52.874Z,2.25
2023-01-11T03:54:24.645Z,2.17
2023-01-11T03:56:57.400Z,1.40
2023-01-11T03:59:25.363Z,2.97
2023-01-11T04:01:55.771Z,1.20
2023-01-11T04:04:23.853Z,3.00
2023-01-11T04:06:51.676Z,1.08
2023-01-11T04:09:19.842Z,0.82
2023-01-11T04:11:47.571Z,1.83
2023-01-11T04:14:15.484Z,1.05
2023-01-11T04:16:44.186Z,0.93
2023-01-11T04:19:13.220Z,1.90
2023-01-11T04:21:40.913Z,0.80
2023-01-11T04:24:08.889Z,0.50
2023-01-11T04:26:36.691Z,0.90
2023-01-11T04:29:04.453Z,0.70
2023-01-11T04:31:32.514Z,0.63
2023-01-11T04:34:00.190Z,0.60
2023-01-11T04:36:31.244Z,0.40
2023-01-11T04:38:59.150Z,0.68
2023-01-11T04:41:44.407Z,0.60
2023-01-11T04:44:12.089Z,0.47
2023-01-11T04:46:39.877Z,1.05
2023-01-11T04:49:07.577Z,2.53
2023-01-11T04:51:36.606Z,0.68
2023-01-11T04:54:07.328Z,1.80
2023-01-11T04:56:36.326Z,2.75
2023-01-11T04:59:04.303Z,2.47
2023-01-11T05:01:32.093Z,1.08
2023-01-11T05:03:59.951Z,0.50
2023-01-11T05:06:27.810Z,1.75
2023-01-11T05:08:56.990Z,0.30
2023-01-11T05:11:24.763Z,0.77
2023-01-11T05:13:52.480Z,0.57
2023-01-11T05:16:23.709Z,1.00
2023-01-11T05:18:53.329Z,3.80
2023-01-11T05:21:23.300Z,1.42
2023-01-11T05:23:51.673Z,0.30
2023-01-11T05:26:23.794Z,2.35
2023-01-11T05:28:52.675Z,0.50
2023-01-11T05:31:20.523Z,2.28
2023-01-11T05:33:48.762Z,0.50
2023-01-11T05:36:21.117Z,0.55
2023-01-11T05:38:50.293Z,0.40
2023-01-11T05:41:20.579Z,0.70
2023-01-11T05:44:08.255Z,2.25
2023-01-11T05:46:38.124Z,1.77
2023-01-11T05:49:06.792Z,1.13
2023-01-11T05:51:35.528Z,0.43
2023-01-11T05:54:04.932Z,0.40
2023-01-11T05:56:34.036Z,0.70
2023-01-11T05:59:02.234Z,0.60
2023-01-11T06:01:29.914Z,0.65
2023-01-11T06:03:57.617Z,1.15
2023-01-11T06:06:25.439Z,1.75
2023-01-11T06:08:55.893Z,0.52
2023-01-11T06:11:23.646Z,2.38
2023-01-11T06:13:52.714Z,0.85
2023-01-11T06:16:22.133Z,0.60
2023-01-11T06:18:51.512Z,0.60
2023-01-11T06:21:20.264Z,0.65
2023-01-11T06:23:50.715Z,0.50
2023-01-11T06:26:21.846Z,0.38
2023-01-11T06:28:50.724Z,0.70
2023-01-11T06:31:20.320Z,0.43
2023-01-11T06:33:48.387Z,0.98
2023-01-11T06:36:17.389Z,0.50
2023-01-11T06:38:45.685Z,0.95
2023-01-11T06:41:14.060Z,0.57
2023-01-11T06:43:42.416Z,0.50
2023-01-11T06:46:14.887Z,0.85
2023-01-11T06:48:44.116Z,1.00
2023-01-11T06:51:12.863Z,0.95
2023-01-11T06:53:41.164Z,0.73
2023-01-11T06:56:11.887Z,1.77
2023-01-11T06:58:39.723Z,1.88
2023-01-11T07:01:08.142Z,4.10
2023-01-11T07:03:36.023Z,1.10
2023-01-11T07:06:05.172Z,1.55
2023-01-11T07:08:32.929Z,0.98
2023-01-11T07:11:00.745Z,0.93
2023-01-11T07:13:28.529Z,2.38
2023-01-11T07:15:58.505Z,1.65
2023-01-11T07:18:26.283Z,2.53
2023-01-11T07:20:54.051Z,1.05
2023-01-11T07:23:23.182Z,1.08
2023-01-11T07:25:51.072Z,2.50
2023-01-11T07:28:18.826Z,1.10
2023-01-11T07:30:58.209Z,3.33
2023-01-11T07:33:26.315Z,1.10
2023-01-11T07:35:54.616Z,1.02
2023-01-11T07:38:23.994Z,1.60
2023-01-11T07:40:51.748Z,0.70
2023-01-11T07:43:19.969Z,3.35
2023-01-11T07:45:49.599Z,0.40
2023-01-11T07:48:20.996Z,1.00
2023-01-11T07:50:49.552Z,1.65
2023-01-11T07:53:18.843Z,1.33
2023-01-11T07:55:48.658Z,1.25
2023-01-11T07:58:17.303Z,1.92
2023-01-11T08:00:46.076Z,1.48
2023-01-11T08:03:14.150Z,1.88
2023-01-11T08:05:42.113Z,4.90
2023-01-11T08:08:09.848Z,1.20
2023-01-11T08:10:39.165Z,1.02
2023-01-11T08:13:31.447Z,1.33
2023-01-11T08:15:59.279Z,1.77
2023-01-11T08:18:27.145Z,1.23
2023-01-11T08:20:54.937Z,0.82
2023-01-11T08:23:22.703Z,1.20
2023-01-11T08:25:50.490Z,1.08
2023-01-11T08:28:19.649Z,3.53
2023-01-11T08:30:47.421Z,1.80
2023-01-11T08:33:15.391Z,1.88
2023-01-11T08:35:43.147Z,1.45
2023-01-11T08:38:10.936Z,0.40
2023-01-11T08:40:38.731Z,0.60
2023-01-11T08:43:06.537Z,2.75
2023-01-11T08:45:35.688Z,0.85
2023-01-11T08:48:03.599Z,0.82
2023-01-11T08:50:31.264Z,1.13
2023-01-11T08:52:59.175Z,1.40
2023-01-11T08:55:26.971Z,2.53
2023-01-11T08:57:56.123Z,1.40
2023-01-11T09:00:24.143Z,1.08
2023-01-11T09:02:53.579Z,1.13
2023-01-11T09:05:21.398Z,1.65
2023-01-11T09:07:49.176Z,0.77
2023-01-11T09:10:17.291Z,0.75
2023-01-11T09:12:45.022Z,1.50
2023-01-11T09:15:12.996Z,0.60
2023-01-11T09:17:40.755Z,0.60
2023-01-11T09:20:12.385Z,1.23
2023-01-11T09:22:40.606Z,1.23
2023-01-11T09:25:09.880Z,0.63
2023-01-11T09:27:37.945Z,1.45
2023-01-11T09:30:06.778Z,1.13
2023-01-11T09:32:34.472Z,0.63
2023-01-11T09:35:03.598Z,0.80
2023-01-11T09:37:32.813Z,0.90
2023-01-11T09:40:01.496Z,0.85
2023-01-11T09:42:37.415Z,0.85
2023-01-11T09:45:13.689Z,0.60
2023-01-11T09:47:46.011Z,1.98
2023-01-11T09:50:18.640Z,0.50
2023-01-11T09:52:52.741Z,0.60
2023-01-11T09:55:28.560Z,2.13
2023-01-11T09:58:28.256Z,1.00
2023-01-11T10:01:03.287Z,0.75
2023-01-11T10:03:59.850Z,1.48
2023-01-11T10:06:32.715Z,0.40
2023-01-11T10:18:31.924Z,1.88
2023-01-11T10:18:38.617Z,1.23
2023-01-11T10:21:16.965Z,0.82
2023-01-11T10:23:50.402Z,1.17
2023-01-11T10:26:28.332Z,0.53
2023-01-11T10:29:22.185Z,1.70
2023-01-11T10:32:13.584Z,0.80
2023-01-11T10:35:00.292Z,1.10
2023-01-11T10:37:48.119Z,2.38
2023-01-11T10:40:41.146Z,0.60
2023-01-11T10:43:20.161Z,1.80
2023-01-11T10:45:52.762Z,0.65
2023-01-11T10:48:28.272Z,1.47
2023-01-11T10:51:04.964Z,1.02
2023-01-11T10:53:39.548Z,1.10
2023-01-11T10:59:13.200Z,1.25
2023-01-11T11:01:54.263Z,3.03
2023-01-11T11:04:59.758Z,1.08
2023-01-11T11:10:09.178Z,1.40
2023-01-11T11:12:39.814Z,1.05
2023-01-11T11:15:16.739Z,1.42
2023-01-11T11:17:50.195Z,1.10
2023-01-11T11:20:20.415Z,2.78
2023-01-11T11:22:50.079Z,1.05
2023-01-11T11:25:20.974Z,1.42
2023-01-11T11:27:52.075Z,3.78
2023-01-11T11:30:30.990Z,2.65
2023-01-11T11:33:02.538Z,2.78
2023-01-11T11:35:38.569Z,1.05
2023-01-11T11:38:07.388Z,4.25
2023-01-11T11:40:37.759Z,3.90
2023-01-11T11:43:18.487Z,1.83
2023-01-11T11:45:56.473Z,1.80
2023-01-11T11:48:25.700Z,1.48
2023-01-11T11:50:54.881Z,2.83
2023-01-11T11:53:29.492Z,2.33
2023-01-11T11:55:57.340Z,1.45
2023-01-11T11:58:27.155Z,1.42
2023-01-11T12:00:56.420Z,1.65
2023-01-11T12:03:30.019Z,1.90
2023-01-11T12:06:01.422Z,2.70
2023-01-11T12:08:32.417Z,2.58
2023-01-11T12:11:02.827Z,4.45
2023-01-11T12:13:33.663Z,3.22
2023-01-11T12:16:04.809Z,1.52
2023-01-11T12:18:41.190Z,1.08
2023-01-11T12:21:19.704Z,1.13
2023-01-11T12:23:47.967Z,0.90
2023-01-11T12:26:22.819Z,2.00
2023-01-11T12:29:27.046Z,0.85
2023-01-11T12:32:21.019Z,2.08
2023-01-11T12:35:17.036Z,0.57
2023-01-11T12:38:01.996Z,1.05
2023-01-11T12:40:37.269Z,0.95
2023-01-11T12:43:24.260Z,0.30
2023-01-11T12:46:02.240Z,1.45
2023-01-11T12:48:50.717Z,1.10
2023-01-11T12:51:28.630Z,2.30
2023-01-11T12:54:10.763Z,0.50
2023-01-11T12:56:51.068Z,1.65
2023-01-11T12:59:35.274Z,0.60
2023-01-11T13:02:23.751Z,0.90
2023-01-11T13:05:06.432Z,1.35
2023-01-11T13:07:50.041Z,3.27
2023-01-11T13:10:35.557Z,0.70
2023-01-11T13:13:10.267Z,1.08
2023-01-11T13:15:48.913Z,1.17
2023-01-11T13:18:29.483Z,0.40
2023-01-11T13:21:06.997Z,0.40
2023-01-11T13:23:42.974Z,0.47
2023-01-11T13:26:20.585Z,0.90
2023-01-11T13:28:54.178Z,0.60
2023-01-11T13:31:23.772Z,0.57
2023-01-11T13:33:58.870Z,0.68
2023-01-11T13:36:33.370Z,1.38
2023-01-11T13:39:08.363Z,1.27
2023-01-11T13:41:42.788Z,0.93
2023-01-11T13:44:16.160Z,2.22
2023-01-11T13:46:54.872Z,1.55
2023-01-11T13:49:39.030Z,0.70
2023-01-11T13:52:13.968Z,0.88
2023-01-11T13:54:51.473Z,1.08
2023-01-11T13:57:26.079Z,0.55
2023-01-11T13:59:58.543Z,0.40
2023-01-11T14:02:38.330Z,3.42
2023-01-11T14:05:14.166Z,0.90
2023-01-11T14:07:56.008Z,1.05
2023-01-11T14:10:39.784Z,1.38
2023-01-11T14:14:00.087Z,1.35
2023-01-11T14:16:39.371Z,1.10
2023-01-11T14:19:17.626Z,1.30
2023-01-11T14:21:58.539Z,0.80
2023-01-11T14:24:30.314Z,1.05
2023-01-11T14:27:16.783Z,2.38
2023-01-11T14:30:07.246Z,1.75
2023-01-11T14:33:01.740Z,1.20
2023-01-11T14:36:02.065Z,0.60
2023-01-11T14:38:57.825Z,2.00
2023-01-11T14:41:50.765Z,1.77
2023-01-11T14:44:36.684Z,0.98
2023-01-11T14:47:33.824Z,1.48
2023-01-11T14:50:14.768Z,1.52
2023-01-11T14:52:44.957Z,0.95
2023-01-11T14:55:18.634Z,2.03
2023-01-11T14:58:03.276Z,1.07
2023-01-11T15:01:04.529Z,1.80
2023-01-11T15:03:47.343Z,1.60
2023-01-11T15:06:17.091Z,1.55
2023-01-11T15:08:47.445Z,2.10
2023-01-11T15:11:32.656Z,1.50
2023-01-11T15:14:05.197Z,4.28
2023-01-11T15:16:52.435Z,3.00
2023-01-11T15:19:33.595Z,1.50
2023-01-11T15:22:03.858Z,1.85
2023-01-11T15:24:34.027Z,3.40
2023-01-11T15:27:03.466Z,2.58
2023-01-11T15:29:41.047Z,2.78
2023-01-11T15:32:18.617Z,2.45
2023-01-11T15:34:48.119Z,5.55
2023-01-11T15:37:54.638Z,2.05
2023-01-11T15:40:26.999Z,1.88
2023-01-11T15:43:24.114Z,2.47
2023-01-11T15:46:46.130Z,3.40
2023-01-11T15:49:55.460Z,2.17
2023-01-11T15:53:06.828Z,2.72
2023-01-11T15:56:03.749Z,3.40
2023-01-11T15:58:51.501Z,2.60
2023-01-11T16:01:26.164Z,5.72
2023-01-11T16:04:00.897Z,5.82
2023-01-11T16:06:39.238Z,2.10
2023-01-11T16:09:23.160Z,3.25
2023-01-11T16:12:00.565Z,2.83
2023-01-11T16:14:50.795Z,2.20
2023-01-11T16:17:23.755Z,4.70
2023-01-11T16:19:56.677Z,3.63
2023-01-11T16:22:27.373Z,1.90
2023-01-11T16:24:59.161Z,1.10
2023-01-11T16:27:29.325Z,4.10
2023-01-11T16:29:57.803Z,1.42
2023-01-11T16:32:32.892Z,0.85
2023-01-11T16:35:01.846Z,3.08
2023-01-11T16:37:32.754Z,1.75
2023-01-11T16:40:07.307Z,4.80
2023-01-11T16:42:41.983Z,4.28
2023-01-11T16:45:15.919Z,1.88
2023-01-11T16:48:03.447Z,3.20
2023-01-11T16:50:31.753Z,1.58
2023-01-11T16:53:01.585Z,2.67
2023-01-11T16:55:34.104Z,8.68
2023-01-11T16:58:05.765Z,5.65
2023-01-11T17:00:39.706Z,2.35
2023-01-11T17:03:31.152Z,2.40
2023-01-11T17:06:02.925Z,3.40
2023-01-11T17:08:34.813Z,5.72
2023-01-11T17:11:09.809Z,8.65
2023-01-11T17:14:02.453Z,3.00
2023-01-11T17:16:32.285Z,4.80
2023-01-11T17:19:07.841Z,3.65
2023-01-11T17:21:35.632Z,11.40
2023-01-11T17:24:06.222Z,9.00
2023-01-11T17:26:47.138Z,4.15
2023-01-11T17:29:19.435Z,10.35
2023-01-11T17:31:47.309Z,3.25
2023-01-11T17:34:20.463Z,6.70
2023-01-11T17:36:51.198Z,2.97
2023-01-11T17:39:27.281Z,5.00
2023-01-11T17:42:13.048Z,2.47
2023-01-11T17:44:59.147Z,1.70
2023-01-11T17:47:27.697Z,1.02
2023-01-11T17:49:58.783Z,5.63
2023-01-11T17:52:28.074Z,3.78
2023-01-11T17:55:13.807Z,2.05
2023-01-11T17:57:42.172Z,4.85
2023-01-11T18:00:18.707Z,5.47
2023-01-11T18:02:47.371Z,3.63
2023-01-11T18:05:19.186Z,2.17
2023-01-11T18:07:51.871Z,2.30
2023-01-11T18:10:23.905Z,3.40
2023-01-11T18:12:52.845Z,3.50
2023-01-11T18:15:32.111Z,1.60
2023-01-11T18:18:01.089Z,2.05
2023-01-11T18:20:40.660Z,4.00
2023-01-11T18:23:23.070Z,2.47
2023-01-11T18:25:50.884Z,1.88
2023-01-11T18:28:27.892Z,5.93
2023-01-11T18:30:58.393Z,3.40
2023-01-11T18:33:29.078Z,2.58
2023-01-11T18:36:00.041Z,6.97
2023-01-11T18:38:30.257Z,8.13
2023-01-11T18:41:20.625Z,3.25
2023-01-11T18:43:48.427Z,5.50
2023-01-11T18:46:16.211Z,3.97
2023-01-11T18:48:46.051Z,8.23
2023-01-11T18:51:19.102Z,3.13
2023-01-11T18:53:46.804Z,4.00
2023-01-11T18:56:16.360Z,2.85
2023-01-11T18:58:44.350Z,5.97
2023-01-11T19:01:12.284Z,2.63
2023-01-11T19:03:40.785Z,6.93
2023-01-11T19:06:13.622Z,6.05
2023-01-11T19:08:42.709Z,4.53
2023-01-11T19:11:10.461Z,4.70
2023-01-11T19:13:38.421Z,4.93
2023-01-11T19:16:07.659Z,9.88
2023-01-11T19:18:36.175Z,6.97
2023-01-11T19:21:06.434Z,5.82
2023-01-11T19:23:35.147Z,6.72
2023-01-11T19:26:04.522Z,11.95
2023-01-11T19:28:32.446Z,12.57
2023-01-11T19:31:00.440Z,3.92
2023-01-11T19:33:28.185Z,4.32
2023-01-11T19:35:55.912Z,5.53
2023-01-11T19:38:23.720Z,4.55
2023-01-11T19:40:53.239Z,3.67
2023-01-11T19:43:22.269Z,7.45
2023-01-11T19:45:56.334Z,7.78
2023-01-11T19:48:26.749Z,9.73
2023-01-11T19:51:01.936Z,3.72
2023-01-11T19:53:31.717Z,5.80
2023-01-11T19:56:01.788Z,6.80
2023-01-11T19:58:32.766Z,7.07
2023-01-11T20:01:01.963Z,9.57
2023-01-11T20:03:30.189Z,6.13
2023-01-11T20:06:04.728Z,6.97
2023-01-11T20:08:36.016Z,5.75
2023-01-11T20:11:06.201Z,8.68
2023-01-11T20:13:35.638Z,7.72
2023-01-11T20:16:06.698Z,6.70
2023-01-11T20:18:35.003Z,5.25
2023-01-11T20:21:03.052Z,4.43
2023-01-11T20:23:31.348Z,2.35
2023-01-11T20:26:00.055Z,4.38
2023-01-11T20:28:30.325Z,5.22
2023-01-11T20:31:02.110Z,4.90
2023-01-11T20:33:30.306Z,7.57
2023-01-11T20:35:58.016Z,5.95
2023-01-11T20:38:25.875Z,6.25
2023-01-11T20:40:54.284Z,8.40
2023-01-11T20:43:21.968Z,8.60
2023-01-11T20:45:56.629Z,8.57
2023-01-11T20:48:25.800Z,4.03
2023-01-11T20:50:53.515Z,3.40
2023-01-11T20:53:21.323Z,4.13
2023-01-11T20:55:49.026Z,4.72
2023-01-11T20:58:16.874Z,9.32
2023-01-11T21:00:44.636Z,7.47
2023-01-11T21:03:12.913Z,9.07
2023-01-11T21:05:41.957Z,6.28
2023-01-11T21:08:09.794Z,8.88
2023-01-11T21:10:37.744Z,5.22
2023-01-11T21:13:06.786Z,2.38
2023-01-11T21:15:34.675Z,8.20
2023-01-11T21:18:02.575Z,8.82
2023-01-11T21:20:30.477Z,9.68
2023-01-11T21:22:59.936Z,4.72
2023-01-11T21:25:27.690Z,10.27
2023-01-11T21:27:55.807Z,3.92
2023-01-11T21:30:23.557Z,2.33
2023-01-11T21:32:51.380Z,9.82
2023-01-11T21:35:19.335Z,8.38
2023-01-11T21:37:47.119Z,10.60
2023-01-11T21:40:16.460Z,8.00
2023-01-11T21:42:44.454Z,6.28
2023-01-11T21:45:12.487Z,3.42
2023-01-11T21:47:40.426Z,10.00
2023-01-11T21:50:09.618Z,14.55
2023-01-11T21:52:37.531Z,8.48
2023-01-11T21:55:05.712Z,6.45
2023-01-11T21:57:34.790Z,2.30
2023-01-11T22:00:02.475Z,8.18
2023-01-11T22:02:40.233Z,6.57
2023-01-11T22:05:09.351Z,9.23
2023-01-11T22:07:38.173Z,5.30
2023-01-11T22:10:06.512Z,6.47
2023-01-11T22:12:35.916Z,3.53
2023-01-11T22:15:03.939Z,6.60
2023-01-11T22:17:31.607Z,6.45
2023-01-11T22:19:59.327Z,8.45
2023-01-11T22:22:28.180Z,2.35
2023-01-11T22:24:55.909Z,6.13
2023-01-11T22:27:23.782Z,3.67
2023-01-11T22:29:54.706Z,6.70
2023-01-11T22:32:22.395Z,3.13
2023-01-11T22:34:50.111Z,1.42
2023-01-11T22:37:17.886Z,3.13
2023-01-11T22:39:45.587Z,5.78
2023-01-11T22:42:13.327Z,1.02
2023-01-11T22:44:41.011Z,5.15
2023-01-11T22:47:10.083Z,2.28
2023-01-11T22:49:37.921Z,6.60
2023-01-11T22:52:06.648Z,3.03
2023-01-11T22:54:34.417Z,6.38
2023-01-11T22:57:02.141Z,2.22
2023-01-11T22:59:29.863Z,3.20
2023-01-11T23:01:57.626Z,1.45
2023-01-11T23:04:26.740Z,1.65
2023-01-11T23:06:54.446Z,1.65
2023-01-11T23:09:22.251Z,4.78
2023-01-11T23:12:07.645Z,5.00
2023-01-11T23:14:35.415Z,3.90
2023-01-11T23:17:05.863Z,3.25
2023-01-11T23:19:35.837Z,11.02
2023-01-11T23:22:03.565Z,2.17
2023-01-11T23:24:31.776Z,1.83
2023-01-11T23:26:59.828Z,4.28
2023-01-11T23:29:27.795Z,2.88
2023-01-11T23:31:55.655Z,3.50
2023-01-11T23:34:24.045Z,8.18
2023-01-11T23:36:53.143Z,3.30
2023-01-11T23:39:21.219Z,3.78
2023-01-11T23:42:06.488Z,4.13
2023-01-11T23:44:34.327Z,5.57
2023-01-11T23:47:20.089Z,3.13
2023-01-11T23:49:52.626Z,8.20
2023-01-11T23:52:24.150Z,2.45
2023-01-11T23:54:52.382Z,6.60
2023-01-11T23:57:21.660Z,1.23
2023-01-11T23:59:49.860Z,3.20
